Terminal Aerodrome Forecast
Issued by NWS Pocatello, ID

Home | Current Version | Previous Version | Text Only | Print | Product List | Glossary On
Versions: 1 2 3 4 5 6 7 8 9 10 11 12
000
FTUS45 KPIH 051120
TAFPIH
TAF
KPIH 051120Z 0512/0612 VRB06KT P6SM BKN200
     FM052100 18010G18KT P6SM SCT060 BKN110 BKN200
     FM060300 16007KT P6SM VCTS SCT060CB OVC150=

USA.gov is the U.S. government's official web portal to all federal, state and local government web resources and services.